Time;durP1;ratioP1;P1;durP2;ratioP2;P2;SDS_P1;SDS_P2;PMS_P1;PMS_P2;Temp;Humidity;BMP_temperature;BMP_pressure;BME280_temperature;BME280_humidity;BME280_pressure;Samples;Min_cycle;Max_cycle;Signal;HPM_P1;HPM_P2
2023/09/07 00:00:30;;;;;;;9.90;4.95;;;;;;;24.26;58.01;102042.22;5091748;27;99259;-71
2023/09/07 00:02:57;;;;;;;6.57;4.22;;;;;;;24.07;58.49;102048.94;5091542;27;99076;-71
2023/09/07 00:05:23;;;;;;;8.13;4.60;;;;;;;24.18;58.22;102049.00;5090548;27;96749;-71
2023/09/07 00:07:50;;;;;;;9.25;4.65;;;;;;;24.20;58.82;102052.50;5086386;27;96816;-72
2023/09/07 00:10:22;;;;;;;7.35;4.60;;;;;;;24.16;58.54;102047.38;5089747;27;97704;-70
2023/09/07 00:12:48;;;;;;;6.35;4.57;;;;;;;24.03;59.37;102054.63;5086640;27;99456;-71
2023/09/07 00:15:15;;;;;;;6.47;4.60;;;;;;;24.16;59.07;102056.34;5089921;27;96868;-72
2023/09/07 00:17:42;;;;;;;5.65;4.50;;;;;;;24.02;59.51;102058.34;5091826;27;97829;-71
2023/09/07 00:20:14;;;;;;;14.75;4.93;;;;;;;23.96;59.31;102050.69;5091899;27;97797;-71
2023/09/07 00:22:43;;;;;;;5.43;4.65;;;;;;;23.90;59.65;102053.78;5089901;27;100014;-71
2023/09/07 00:25:10;;;;;;;7.05;5.32;;;;;;;23.97;59.68;102055.94;5092141;27;97331;-72
2023/09/07 00:27:37;;;;;;;7.53;4.80;;;;;;;24.14;58.89;102052.91;5091863;27;97776;-72
2023/09/07 00:30:05;;;;;;;6.82;4.85;;;;;;;24.09;58.88;102056.94;5091528;27;99240;-71
2023/09/07 00:32:33;;;;;;;11.27;6.00;;;;;;;23.79;60.35;102051.84;5088929;27;101978;-71
2023/09/07 00:34:59;;;;;;;7.18;4.88;;;;;;;24.05;59.61;102053.56;5090877;27;97063;-72
2023/09/07 00:37:26;;;;;;;6.05;5.13;;;;;;;24.00;59.80;102050.34;5091498;27;99015;-71
2023/09/07 00:39:53;;;;;;;8.48;5.15;;;;;;;23.77;60.31;102051.09;5089183;27;101116;-71
2023/09/07 00:42:19;;;;;;;7.97;5.05;;;;;;;23.80;60.39;102043.66;5090555;27;101376;-71
2023/09/07 00:44:48;;;;;;;7.15;4.97;;;;;;;23.77;60.94;102057.34;5087295;27;97096;-70
2023/09/07 00:47:14;;;;;;;15.68;5.07;;;;;;;23.73;61.00;102052.28;5090819;27;96805;-70
2023/09/07 00:49:41;;;;;;;7.10;4.82;;;;;;;23.69;61.15;102056.19;5093249;27;97836;-70
2023/09/07 00:52:09;;;;;;;9.65;5.20;;;;;;;23.47;62.17;102054.09;5095019;27;99070;-71
2023/09/07 00:54:36;;;;;;;7.43;4.78;;;;;;;23.51;62.67;102057.44;5091540;27;96860;-70
2023/09/07 00:57:03;;;;;;;6.20;5.07;;;;;;;23.55;62.28;102054.44;5095535;27;96903;-71
2023/09/07 00:59:30;;;;;;;6.38;5.18;;;;;;;23.49;62.30;102054.00;5094440;27;99124;-71
2023/09/07 01:01:57;;;;;;;7.28;4.90;;;;;;;23.41;62.49;102047.25;5094193;27;99194;-71
2023/09/07 01:04:24;;;;;;;11.02;4.82;;;;;;;23.67;61.88;102041.94;5091363;27;99151;-71
2023/09/07 01:06:57;;;;;;;11.85;5.97;;;;;;;23.66;61.94;102045.59;5094384;27;97589;-70
2023/09/07 01:09:29;;;;;;;5.40;4.90;;;;;;;23.43;62.78;102042.59;5094338;27;98878;-71
2023/09/07 01:11:55;;;;;;;6.50;5.20;;;;;;;23.68;62.10;102046.34;5087173;27;98163;-71
2023/09/07 01:14:22;;;;;;;9.85;5.57;;;;;;;23.58;61.91;102047.94;5091738;27;98593;-71
2023/09/07 01:16:49;;;;;;;9.30;5.78;;;;;;;23.56;62.33;102041.81;5093884;27;96844;-71
2023/09/07 01:19:17;;;;;;;9.73;5.25;;;;;;;23.70;61.73;102047.94;5094046;27;98940;-71
2023/09/07 01:21:46;;;;;;;9.88;5.35;;;;;;;23.68;61.92;102043.66;5094426;27;98752;-71
2023/09/07 01:24:14;;;;;;;6.22;5.32;;;;;;;23.72;61.42;102045.16;5095084;27;96811;-71
2023/09/07 01:26:42;;;;;;;8.85;5.55;;;;;;;23.74;61.18;102037.81;5094967;27;97903;-71
2023/09/07 01:29:09;;;;;;;9.77;5.90;;;;;;;23.61;61.74;102045.06;5094170;27;99256;-71
2023/09/07 01:31:37;;;;;;;11.82;5.72;;;;;;;23.80;60.66;102045.50;5093367;27;99663;-71
2023/09/07 01:34:04;;;;;;;8.63;5.53;;;;;;;23.77;60.65;102043.00;5094774;27;97626;-73
2023/09/07 01:36:30;;;;;;;9.38;5.72;;;;;;;23.51;61.58;102046.66;5092319;27;96932;-74
2023/09/07 01:38:59;;;;;;;6.40;5.30;;;;;;;23.44;62.92;102046.16;5095091;27;97938;-74
2023/09/07 01:41:25;;;;;;;9.65;5.65;;;;;;;23.51;63.17;102043.94;5092480;27;98705;-74
2023/09/07 01:43:52;;;;;;;9.40;5.88;;;;;;;23.33;63.97;102038.84;5094415;27;96900;-74
2023/09/07 01:46:18;;;;;;;7.45;5.25;;;;;;;23.58;63.06;102042.56;5089980;27;97978;-74
2023/09/07 01:48:44;;;;;;;8.55;5.63;;;;;;;23.42;63.50;102045.44;5093268;27;102184;-74
2023/09/07 01:51:11;;;;;;;9.55;6.28;;;;;;;23.47;63.49;102045.09;5093370;27;98882;-74
2023/09/07 01:53:37;;;;;;;6.80;5.50;;;;;;;23.50;63.21;102040.38;5093077;27;97094;-74
2023/09/07 01:56:05;;;;;;;8.10;6.00;;;;;;;23.19;64.54;102040.72;5092962;27;99321;-74
2023/09/07 01:58:31;;;;;;;8.57;6.00;;;;;;;23.11;64.54;102043.94;5092966;27;98987;-72
2023/09/07 02:00:58;;;;;;;11.50;6.47;;;;;;;23.09;65.10;102045.91;5093413;27;99260;-70
2023/09/07 02:03:25;;;;;;;10.63;5.72;;;;;;;23.05;65.45;102045.22;5092492;27;96941;-71
2023/09/07 02:05:53;;;;;;;8.68;5.90;;;;;;;23.10;65.20;102044.06;5093866;27;97019;-71
2023/09/07 02:08:19;;;;;;;13.10;7.00;;;;;;;23.11;65.12;102038.56;5091572;27;98899;-71
2023/09/07 02:10:46;;;;;;;11.68;6.53;;;;;;;23.02;65.42;102034.66;5092526;27;98807;-70
2023/09/07 02:13:14;;;;;;;7.55;6.20;;;;;;;22.97;65.07;102044.03;5091430;27;97053;-71
2023/09/07 02:15:40;;;;;;;9.20;6.68;;;;;;;23.05;64.92;102039.84;5088974;27;96925;-71
2023/09/07 02:18:07;;;;;;;6.97;6.28;;;;;;;23.16;64.10;102041.81;5093159;27;99309;-70
2023/09/07 02:20:34;;;;;;;10.25;6.00;;;;;;;23.18;64.38;102044.38;5093238;27;101685;-71
2023/09/07 02:23:00;;;;;;;9.20;6.50;;;;;;;23.19;64.29;102041.59;5093228;27;100046;-71
2023/09/07 02:25:27;;;;;;;9.68;6.45;;;;;;;22.98;64.95;102032.25;5091560;27;99518;-71
2023/09/07 02:27:54;;;;;;;9.45;6.43;;;;;;;23.07;64.51;102036.19;5091704;27;98895;-72
2023/09/07 02:30:22;;;;;;;10.27;6.45;;;;;;;23.09;64.61;102040.50;5092671;27;98816;-74
2023/09/07 02:32:48;;;;;;;7.70;5.93;;;;;;;22.98;64.74;102038.53;5092839;27;96824;-72
2023/09/07 02:35:15;;;;;;;13.93;6.57;;;;;;;22.88;65.19;102037.41;5090661;27;97078;-71
2023/09/07 02:37:41;;;;;;;13.00;6.75;;;;;;;22.98;64.83;102034.94;5092252;27;98933;-71
2023/09/07 02:40:09;;;;;;;10.02;6.28;;;;;;;22.82;65.51;102027.06;5093294;27;99044;-72
2023/09/07 02:42:36;;;;;;;9.77;6.80;;;;;;;22.79;65.54;102037.16;5092457;27;96865;-72
2023/09/07 02:45:02;;;;;;;8.25;6.25;;;;;;;22.67;66.68;102041.50;5091686;27;97151;-71
2023/09/07 02:47:30;;;;;;;9.43;6.18;;;;;;;22.76;66.23;102035.53;5091784;27;99273;-71
2023/09/07 02:49:56;;;;;;;11.75;6.50;;;;;;;22.86;65.89;102036.66;5092133;27;98925;-71
2023/09/07 02:52:23;;;;;;;9.52;6.65;;;;;;;22.83;66.03;102046.78;5092661;27;98740;-70
2023/09/07 02:54:49;;;;;;;12.45;6.50;;;;;;;22.79;66.04;102042.53;5089908;27;98111;-71
2023/09/07 02:57:16;;;;;;;7.93;6.07;;;;;;;22.76;65.86;102046.31;5089588;27;101079;-70
2023/09/07 02:59:41;;;;;;;10.27;5.97;;;;;;;22.69;66.38;102050.34;5091820;27;98795;-70
2023/09/07 03:02:07;;;;;;;11.38;6.65;;;;;;;22.74;66.14;102050.06;5091617;27;97201;-71
2023/09/07 03:04:35;;;;;;;10.90;7.35;;;;;;;22.85;65.81;102045.69;5092290;27;97117;-71
2023/09/07 03:07:02;;;;;;;9.63;6.22;;;;;;;22.83;65.78;102031.47;5097392;27;99233;-71
2023/09/07 03:09:28;;;;;;;7.63;5.97;;;;;;;22.76;66.34;102040.94;5092741;27;99262;-70
2023/09/07 03:11:54;;;;;;;7.80;6.43;;;;;;;22.53;67.41;102044.22;5091420;27;97044;-71
2023/09/07 03:14:21;;;;;;;11.30;6.72;;;;;;;22.60;66.42;102046.41;5092263;27;96952;-71
2023/09/07 03:16:50;;;;;;;10.27;6.57;;;;;;;22.64;66.55;102045.25;5090893;27;99129;-71
2023/09/07 03:19:16;;;;;;;11.02;6.57;;;;;;;22.57;66.66;102051.16;5092752;27;101584;-71
2023/09/07 03:21:44;;;;;;;10.57;6.40;;;;;;;22.47;67.17;102047.31;5091600;27;98838;-70
2023/09/07 03:24:10;;;;;;;9.38;6.07;;;;;;;22.55;66.73;102050.38;5091446;27;96793;-72
2023/09/07 03:26:37;;;;;;;12.23;6.43;;;;;;;22.43;66.69;102046.66;5092724;27;97609;-71
2023/09/07 03:29:03;;;;;;;9.25;6.53;;;;;;;22.67;65.34;102047.75;5091900;27;97646;-72
2023/09/07 03:31:30;;;;;;;9.35;6.72;;;;;;;22.85;64.55;102044.81;5091886;27;98418;-71
2023/09/07 03:33:56;;;;;;;10.68;6.03;;;;;;;22.51;65.56;102044.31;5092260;27;97262;-71
2023/09/07 03:36:23;;;;;;;10.57;6.75;;;;;;;22.72;64.72;102049.25;5091890;27;99392;-74
2023/09/07 03:38:51;;;;;;;13.32;6.35;;;;;;;22.78;64.49;102043.50;5092234;27;99039;-74
2023/09/07 03:41:17;;;;;;;9.20;6.05;;;;;;;22.41;66.31;102045.88;5088931;27;96851;-74
2023/09/07 03:43:44;;;;;;;10.05;6.35;;;;;;;22.51;66.09;102048.88;5092367;27;97205;-73
2023/09/07 03:46:10;;;;;;;8.10;5.60;;;;;;;22.43;66.51;102046.66;5092046;27;98897;-73
2023/09/07 03:48:37;;;;;;;8.80;6.20;;;;;;;22.47;66.25;102050.88;5091257;27;98834;-72
2023/09/07 03:51:08;;;;;;;11.35;6.30;;;;;;;22.47;66.16;102052.69;5090471;27;96857;-74
2023/09/07 03:53:34;;;;;;;12.52;6.65;;;;;;;22.28;66.92;102053.03;5091373;27;96971;-73
2023/09/07 03:56:03;;;;;;;10.85;6.15;;;;;;;22.24;67.24;102051.50;5091235;27;99038;-74
2023/09/07 03:58:30;;;;;;;15.45;6.13;;;;;;;22.24;66.80;102057.75;5091796;27;98144;-74
2023/09/07 04:00:59;;;;;;;11.40;6.32;;;;;;;22.21;66.94;102052.56;5091564;27;98173;-74
2023/09/07 04:03:26;;;;;;;17.10;6.82;;;;;;;22.29;66.54;102054.75;5091822;27;97183;-73
2023/09/07 04:05:52;;;;;;;14.18;6.43;;;;;;;22.29;66.47;102062.84;5090119;27;98919;-74
2023/09/07 04:08:19;;;;;;;13.85;6.75;;;;;;;22.15;66.90;102057.47;5091221;27;98537;-73
2023/09/07 04:10:45;;;;;;;11.95;5.97;;;;;;;22.30;66.24;102061.00;5092380;27;98978;-74
2023/09/07 04:13:14;;;;;;;7.72;5.95;;;;;;;21.96;67.58;102063.13;5088530;27;96859;-73
2023/09/07 04:15:45;;;;;;;10.90;6.15;;;;;;;21.95;67.54;102061.38;5090657;27;100856;-75
2023/09/07 04:18:12;;;;;;;9.80;6.57;;;;;;;22.06;66.90;102058.91;5088058;27;99033;-74
2023/09/07 04:20:39;;;;;;;11.02;6.25;;;;;;;22.19;66.36;102064.38;5091422;27;97707;-74
2023/09/07 04:23:05;;;;;;;10.68;5.55;;;;;;;22.11;66.75;102069.41;5091028;27;96945;-74
2023/09/07 04:25:32;;;;;;;12.73;6.32;;;;;;;22.34;66.06;102066.09;5093841;27;97721;-74
2023/09/07 04:27:59;;;;;;;11.77;6.25;;;;;;;22.35;65.58;102065.13;5095172;27;99482;-74
2023/09/07 04:30:25;;;;;;;12.88;6.47;;;;;;;22.14;65.79;102066.50;5094754;27;96746;-73
2023/09/07 04:32:52;;;;;;;13.88;6.93;;;;;;;22.19;65.58;102073.31;5094837;27;97162;-73
2023/09/07 04:35:19;;;;;;;12.57;6.60;;;;;;;22.26;65.33;102076.47;5094890;27;99557;-74
2023/09/07 04:37:45;;;;;;;8.77;6.18;;;;;;;22.47;64.32;102068.88;5094628;27;99106;-74
2023/09/07 04:40:12;;;;;;;9.40;6.47;;;;;;;22.41;64.46;102072.81;5095037;27;97091;-73
2023/09/07 04:42:39;;;;;;;11.98;7.22;;;;;;;22.31;64.80;102068.13;5093813;27;96927;-73
2023/09/07 04:45:06;;;;;;;13.02;6.80;;;;;;;22.47;63.57;102075.13;5095760;27;98450;-73
2023/09/07 04:47:34;;;;;;;13.70;6.97;;;;;;;22.42;63.82;102076.38;5094934;27;98015;-73
2023/09/07 04:50:01;;;;;;;8.02;5.85;;;;;;;22.52;64.03;102072.97;5094776;27;97101;-73
2023/09/07 04:52:27;;;;;;;10.98;6.72;;;;;;;22.56;63.82;102074.53;5093331;27;97023;-74
2023/09/07 04:54:54;;;;;;;9.15;6.38;;;;;;;22.54;63.74;102079.16;5093116;27;98940;-74
2023/09/07 04:57:20;;;;;;;11.38;6.78;;;;;;;22.71;62.95;102077.19;5094105;27;98769;-74
2023/09/07 04:59:47;;;;;;;13.13;6.30;;;;;;;22.88;62.29;102075.16;5095353;27;96701;-73
2023/09/07 05:02:13;;;;;;;11.85;6.50;;;;;;;22.90;61.83;102075.06;5093244;27;96761;-75
2023/09/07 05:04:41;;;;;;;10.48;6.28;;;;;;;22.91;61.92;102082.16;5093094;27;101930;-74
2023/09/07 05:07:08;;;;;;;10.82;6.30;;;;;;;22.82;61.90;102083.63;5094636;27;97583;-74
2023/09/07 05:09:34;;;;;;;11.10;7.30;;;;;;;22.96;61.22;102089.00;5091646;27;98909;-73
2023/09/07 05:12:01;;;;;;;15.43;6.75;;;;;;;23.12;60.69;102078.03;5093038;27;97125;-74
2023/09/07 05:14:28;;;;;;;12.25;6.95;;;;;;;23.25;60.00;102088.84;5093745;27;99260;-74
2023/09/07 05:16:56;;;;;;;10.27;6.75;;;;;;;23.31;59.95;102083.91;5094215;27;99028;-74
2023/09/07 05:19:23;;;;;;;12.05;7.40;;;;;;;23.41;59.00;102082.34;5094331;27;97259;-74
2023/09/07 05:21:50;;;;;;;17.40;7.25;;;;;;;23.30;59.22;102082.19;5093861;27;98915;-74
2023/09/07 05:24:17;;;;;;;11.48;6.93;;;;;;;23.20;59.50;102094.56;5093438;27;101210;-74
2023/09/07 05:26:44;;;;;;;14.20;6.70;;;;;;;23.62;58.13;102084.56;5094093;27;101893;-75
2023/09/07 05:29:10;;;;;;;12.38;6.72;;;;;;;23.64;57.58;102091.56;5092410;27;99733;-73
2023/09/07 05:31:37;;;;;;;14.65;7.57;;;;;;;23.79;57.27;102089.63;5093541;27;97178;-73
2023/09/07 05:34:04;;;;;;;13.07;7.13;;;;;;;23.94;56.74;102091.28;5092635;27;97653;-74
2023/09/07 05:36:31;;;;;;;14.93;7.15;;;;;;;24.22;55.92;102090.19;5094416;27;98752;-73
2023/09/07 05:38:59;;;;;;;10.13;6.72;;;;;;;24.08;56.10;102087.59;5094360;27;96749;-73
2023/09/07 05:41:25;;;;;;;13.40;7.40;;;;;;;23.92;56.59;102087.81;5088028;27;96850;-73
2023/09/07 05:43:52;;;;;;;15.05;7.40;;;;;;;23.93;55.99;102094.06;5092950;27;99079;-73
2023/09/07 05:46:18;;;;;;;15.20;6.75;;;;;;;24.30;55.23;102100.44;5091187;27;98609;-73
2023/09/07 05:48:45;;;;;;;13.65;6.93;;;;;;;24.31;54.78;102103.03;5094395;27;96807;-73
2023/09/07 05:51:11;;;;;;;13.60;6.95;;;;;;;24.48;54.45;102099.97;5093655;27;96812;-73
2023/09/07 05:53:39;;;;;;;10.50;6.82;;;;;;;24.29;54.96;102104.09;5092600;27;98174;-74
2023/09/07 05:56:07;;;;;;;14.90;6.97;;;;;;;24.37;54.29;102107.13;5091770;27;98663;-71
2023/09/07 05:58:34;;;;;;;11.93;6.30;;;;;;;24.66;53.26;102097.78;5089718;27;97028;-70
2023/09/07 06:01:01;;;;;;;8.75;6.35;;;;;;;24.78;53.18;102102.28;5090750;27;96908;-71
2023/09/07 06:03:28;;;;;;;17.98;6.70;;;;;;;24.71;52.52;102102.84;5085633;27;97729;-70
2023/09/07 06:05:54;;;;;;;13.50;6.50;;;;;;;24.87;51.97;102101.63;5093852;27;98733;-73
2023/09/07 06:08:21;;;;;;;16.33;6.38;;;;;;;25.17;51.75;102098.47;5093401;27;97376;-73
2023/09/07 06:10:47;;;;;;;14.18;7.43;;;;;;;25.16;51.72;102101.28;5089722;27;97736;-74
2023/09/07 06:13:15;;;;;;;13.32;7.03;;;;;;;25.14;51.36;102106.81;5098581;27;97740;-74
2023/09/07 06:15:42;;;;;;;24.33;7.60;;;;;;;25.28;51.42;102108.47;5099565;27;101232;-73
2023/09/07 06:18:08;;;;;;;15.07;6.60;;;;;;;25.61;49.22;102100.50;5091700;27;97267;-73
2023/09/07 06:20:36;;;;;;;14.30;6.40;;;;;;;25.70;48.32;102102.50;5097875;27;97350;-73
2023/09/07 06:23:02;;;;;;;18.50;7.07;;;;;;;25.67;49.32;102102.72;5092823;27;98945;-72
2023/09/07 06:25:29;;;;;;;12.32;6.07;;;;;;;26.00;47.59;102109.19;5092885;27;101955;-73
2023/09/07 06:27:55;;;;;;;16.40;6.93;;;;;;;26.13;47.20;102108.09;5091640;27;96844;-74
2023/09/07 06:30:23;;;;;;;15.05;7.07;;;;;;;26.06;47.49;102114.13;5086933;27;98901;-73
2023/09/07 06:32:51;;;;;;;11.32;6.10;;;;;;;26.15;46.76;102107.97;5089876;27;98899;-74
2023/09/07 06:35:18;;;;;;;19.85;6.72;;;;;;;26.26;45.74;102113.44;5087892;27;99508;-72
2023/09/07 06:37:45;;;;;;;13.50;6.43;;;;;;;26.34;45.07;102107.41;5091579;27;97648;-72
2023/09/07 06:40:13;;;;;;;12.95;7.03;;;;;;;26.31;45.84;102113.94;5093559;27;97255;-73
2023/09/07 06:42:39;;;;;;;12.80;6.07;;;;;;;26.33;46.00;102111.09;5090924;27;99239;-72
2023/09/07 06:45:08;;;;;;;13.80;6.18;;;;;;;26.76;44.04;102105.75;5090705;27;98445;-73
2023/09/07 06:47:36;;;;;;;16.52;6.43;;;;;;;26.90;43.72;102109.09;5090983;27;97549;-73
2023/09/07 06:50:03;;;;;;;11.18;6.38;;;;;;;27.07;43.11;102114.94;5090958;27;96812;-73
2023/09/07 06:52:32;;;;;;;11.73;6.03;;;;;;;27.30;42.42;102103.91;5091558;27;98053;-73
2023/09/07 06:54:59;;;;;;;10.82;6.53;;;;;;;27.42;41.91;102101.13;5091062;27;100794;-76
2023/09/07 06:57:25;;;;;;;15.95;5.90;;;;;;;27.38;42.57;102112.25;5092698;27;97718;-74
2023/09/07 06:59:52;;;;;;;17.63;6.97;;;;;;;27.65;42.13;102116.34;5091769;27;96917;-74
2023/09/07 07:02:19;;;;;;;17.02;7.07;;;;;;;27.28;42.81;102115.88;5094249;27;98263;-73
2023/09/07 07:04:47;;;;;;;14.07;5.88;;;;;;;27.55;41.26;102115.41;5087133;27;99252;-74
2023/09/07 07:07:13;;;;;;;9.30;6.28;;;;;;;27.65;41.55;102114.47;5092080;27;96734;-74
2023/09/07 07:09:40;;;;;;;14.57;6.45;;;;;;;27.91;40.93;102119.50;5087664;27;96953;-73
2023/09/07 07:12:07;;;;;;;11.57;6.07;;;;;;;27.98;40.21;102118.84;5092149;27;98807;-74
2023/09/07 07:14:33;;;;;;;17.33;6.50;;;;;;;27.71;40.59;102123.94;5091634;27;98082;-73
2023/09/07 07:17:01;;;;;;;11.32;6.45;;;;;;;27.88;40.74;102123.38;5092218;27;96756;-75
2023/09/07 07:19:28;;;;;;;12.73;5.68;;;;;;;27.89;39.84;102111.50;5090121;27;96790;-74
2023/09/07 07:21:56;;;;;;;16.60;5.85;;;;;;;28.13;40.12;102120.22;5092117;27;99039;-75
2023/09/07 07:24:23;;;;;;;14.23;5.53;;;;;;;27.96;39.60;102118.09;5086788;27;98901;-74
2023/09/07 07:26:50;;;;;;;13.70;5.65;;;;;;;27.72;39.50;102121.09;5090633;27;96883;-74
2023/09/07 07:29:17;;;;;;;13.90;6.15;;;;;;;28.05;39.25;102122.75;5090879;27;96897;-74
2023/09/07 07:31:43;;;;;;;15.80;5.95;;;;;;;28.16;39.17;102119.09;5094810;27;97628;-75
2023/09/07 07:34:10;;;;;;;8.80;5.45;;;;;;;28.36;38.77;102130.94;5091903;27;99341;-74
2023/09/07 07:36:36;;;;;;;13.10;5.60;;;;;;;28.35;38.31;102132.81;5091908;27;96758;-74
2023/09/07 07:39:06;;;;;;;18.73;6.32;;;;;;;28.44;38.53;102131.13;5090266;27;96908;-72
2023/09/07 07:41:33;;;;;;;11.30;5.70;;;;;;;28.68;38.22;102137.09;5089500;27;99413;-71
2023/09/07 07:44:00;;;;;;;12.10;6.00;;;;;;;28.61;38.28;102130.47;5090767;27;100938;-71
2023/09/07 07:46:26;;;;;;;10.15;5.47;;;;;;;29.12;36.65;102135.78;5091583;27;96856;-71
2023/09/07 07:48:53;;;;;;;13.43;5.57;;;;;;;29.07;36.04;102134.50;5093040;27;96833;-71
2023/09/07 07:51:19;;;;;;;8.10;5.03;;;;;;;29.22;36.39;102131.19;5089649;27;101591;-71
2023/09/07 07:53:48;;;;;;;13.43;4.95;;;;;;;29.22;36.60;102136.63;5091553;27;97682;-71
2023/09/07 07:56:17;;;;;;;10.68;5.10;;;;;;;29.46;36.14;102128.09;5088188;27;97725;-72
2023/09/07 07:58:44;;;;;;;9.85;5.07;;;;;;;29.53;35.56;102129.25;5090394;27;97469;-72
2023/09/07 08:01:15;;;;;;;10.18;4.97;;;;;;;29.78;35.62;102126.91;5089870;27;102123;-72
2023/09/07 08:03:41;;;;;;;9.77;4.90;;;;;;;29.83;35.06;102130.03;5082899;27;99256;-71
2023/09/07 08:06:08;;;;;;;8.25;4.68;;;;;;;29.91;34.92;102127.47;5087251;27;97441;-71
2023/09/07 08:08:34;;;;;;;16.67;5.97;;;;;;;29.80;35.22;102124.91;5086346;27;97930;-72
2023/09/07 08:11:05;;;;;;;8.23;5.35;;;;;;;29.63;35.25;102129.22;5085976;27;97611;-72
2023/09/07 08:13:34;;;;;;;10.38;5.10;;;;;;;30.14;34.58;102120.66;5086031;27;99391;-70
2023/09/07 08:16:01;;;;;;;7.50;4.93;;;;;;;30.46;33.68;102125.69;5089455;27;97861;-71
2023/09/07 08:18:27;;;;;;;8.10;5.18;;;;;;;30.26;34.16;102126.81;5088563;27;97517;-72
2023/09/07 08:20:54;;;;;;;12.30;5.03;;;;;;;29.96;34.74;102127.91;5086569;27;99083;-71
2023/09/07 08:23:22;;;;;;;8.45;4.70;;;;;;;30.18;35.10;102127.56;5089115;27;99168;-71
2023/09/07 08:25:48;;;;;;;8.45;4.80;;;;;;;30.22;35.08;102125.38;5088637;27;97485;-71
2023/09/07 08:28:15;;;;;;;11.32;4.70;;;;;;;30.44;34.79;102130.47;5087318;27;96799;-71
2023/09/07 08:30:43;;;;;;;7.35;5.03;;;;;;;30.58;34.17;102126.41;5083222;27;98956;-74
2023/09/07 08:33:10;;;;;;;8.63;4.60;;;;;;;30.55;33.50;102129.44;5082113;27;98834;-74
2023/09/07 08:35:43;;;;;;;14.32;4.85;;;;;;;30.42;34.11;102127.03;5086487;27;96821;-74
2023/09/07 08:38:10;;;;;;;9.02;4.53;;;;;;;30.76;33.43;102124.59;5088195;27;97265;-74
2023/09/07 08:40:40;;;;;;;7.53;4.95;;;;;;;30.77;33.16;102127.19;5079756;27;99044;-75
2023/09/07 08:43:11;;;;;;;9.18;4.80;;;;;;;30.74;32.98;102124.72;5089124;27;99738;-74
2023/09/07 08:45:43;;;;;;;7.03;4.10;;;;;;;30.56;33.44;102117.53;5088471;27;97149;-74
2023/09/07 08:48:12;;;;;;;9.32;4.43;;;;;;;30.84;33.10;102119.22;5083797;27;98822;-74
2023/09/07 08:50:42;;;;;;;7.30;4.68;;;;;;;30.71;32.62;102126.94;5087741;27;101762;-74
2023/09/07 08:53:12;;;;;;;7.40;4.20;;;;;;;30.64;32.76;102126.69;5088424;27;98826;-76
2023/09/07 08:55:40;;;;;;;8.55;5.25;;;;;;;30.26;33.46;102124.94;5087938;27;97452;-75
2023/09/07 08:58:07;;;;;;;17.55;4.53;;;;;;;30.33;33.25;102128.78;5088302;27;98139;-75
2023/09/07 09:00:34;;;;;;;8.15;3.88;;;;;;;30.53;33.22;102123.25;5085988;27;99611;-75
2023/09/07 09:03:00;;;;;;;8.23;4.60;;;;;;;30.52;32.52;102130.63;5088104;27;98598;-74
2023/09/07 09:05:29;;;;;;;13.82;4.22;;;;;;;30.75;32.25;102122.88;5087143;27;96882;-74
2023/09/07 09:08:03;;;;;;;12.70;4.60;;;;;;;31.01;32.41;102128.44;5084547;27;97069;-75
2023/09/07 09:10:30;;;;;;;6.10;4.03;;;;;;;30.97;31.81;102121.59;5086235;27;98956;-74
2023/09/07 09:12:56;;;;;;;4.90;3.95;;;;;;;30.79;31.99;102129.72;5087652;27;98000;-74
2023/09/07 09:15:23;;;;;;;9.38;4.82;;;;;;;30.98;32.45;102121.44;5090767;27;98952;-74
2023/09/07 09:17:49;;;;;;;11.35;4.75;;;;;;;30.90;32.85;102121.34;5090707;27;96822;-74
2023/09/07 09:20:23;;;;;;;13.75;4.82;;;;;;;31.26;31.93;102114.91;5089766;27;98982;-75
2023/09/07 09:22:53;;;;;;;8.57;4.65;;;;;;;31.46;31.67;102118.34;5090087;27;99189;-75
2023/09/07 09:25:19;;;;;;;7.30;4.40;;;;;;;31.39;31.16;102110.94;5093142;27;97030;-74
2023/09/07 09:27:46;;;;;;;11.63;4.55;;;;;;;31.34;31.53;102116.88;5090972;27;96917;-73
2023/09/07 09:30:15;;;;;;;13.85;4.95;;;;;;;31.07;31.08;102116.94;5091309;27;99300;-74
2023/09/07 09:32:42;;;;;;;15.38;4.72;;;;;;;30.75;30.99;102118.28;5094400;27;98783;-74
2023/09/07 09:35:09;;;;;;;6.03;4.05;;;;;;;30.72;31.08;102107.66;5090104;27;97224;-73
2023/09/07 09:37:43;;;;;;;9.25;4.40;;;;;;;30.58;30.39;102110.06;5091384;27;97079;-74
2023/09/07 09:40:12;;;;;;;11.20;4.60;;;;;;;30.68;30.53;102103.53;5089685;27;99449;-74
2023/09/07 09:42:39;;;;;;;10.18;4.05;;;;;;;31.00;30.38;102093.97;5088897;27;99040;-74
2023/09/07 09:45:08;;;;;;;8.30;4.18;;;;;;;31.09;30.07;102096.69;5092571;27;98223;-74
2023/09/07 09:47:39;;;;;;;16.50;4.57;;;;;;;30.94;30.01;102097.31;5089790;27;97252;-74
2023/09/07 09:50:07;;;;;;;10.50;4.65;;;;;;;30.73;30.56;102098.47;5085503;27;99603;-75
2023/09/07 09:52:35;;;;;;;9.65;4.50;;;;;;;30.64;30.81;102093.94;5089913;27;98966;-74
2023/09/07 09:55:05;;;;;;;7.53;4.53;;;;;;;30.85;31.07;102086.31;5090681;27;97238;-75
2023/09/07 09:57:34;;;;;;;9.50;4.40;;;;;;;30.87;29.85;102097.06;5087399;27;97901;-73
2023/09/07 10:00:06;;;;;;;12.13;4.05;;;;;;;30.94;30.23;102083.69;5086878;27;99277;-74
2023/09/07 10:02:35;;;;;;;14.80;4.75;;;;;;;31.32;30.22;102088.84;5095187;27;101694;-74
2023/09/07 10:05:06;;;;;;;8.70;4.95;;;;;;;31.05;30.29;102092.53;5093069;27;96772;-74
2023/09/07 10:07:43;;;;;;;5.82;3.55;;;;;;;31.14;29.46;102091.59;5097291;27;96777;-74
2023/09/07 10:10:11;;;;;;;6.43;3.80;;;;;;;31.20;29.50;102082.78;5088875;27;99096;-73
2023/09/07 10:12:42;;;;;;;7.57;4.10;;;;;;;31.36;29.46;102083.94;5094560;27;98944;-75
2023/09/07 10:15:21;;;;;;;8.30;4.18;;;;;;;31.16;29.64;102084.13;5094983;27;96975;-73
2023/09/07 10:17:49;;;;;;;6.53;3.78;;;;;;;31.25;30.25;102087.75;5085736;27;97978;-74
2023/09/07 10:20:16;;;;;;;4.72;3.45;;;;;;;31.07;29.45;102079.59;5090677;27;98939;-74
2023/09/07 10:22:42;;;;;;;7.22;3.97;;;;;;;30.95;30.01;102080.78;5089768;27;99100;-74
2023/09/07 10:25:19;;;;;;;12.48;3.47;;;;;;;30.73;30.16;102081.22;5087722;27;98788;-73
2023/09/07 10:27:47;;;;;;;8.48;3.65;;;;;;;30.93;29.96;102085.53;5091312;27;97585;-74
2023/09/07 10:30:18;;;;;;;5.38;3.55;;;;;;;31.10;29.78;102082.00;5089478;27;101248;-73
2023/09/07 10:32:45;;;;;;;5.85;3.80;;;;;;;31.19;29.28;102078.31;5093368;27;97783;-74
2023/09/07 10:35:16;;;;;;;8.57;3.33;;;;;;;31.27;29.44;102080.28;5090864;27;96877;-74
2023/09/07 10:37:46;;;;;;;6.78;3.90;;;;;;;31.05;29.42;102081.59;5089602;27;96927;-74
2023/09/07 10:40:15;;;;;;;4.38;3.20;;;;;;;30.98;29.09;102083.22;5088065;27;98907;-73
2023/09/07 10:42:42;;;;;;;4.32;3.40;;;;;;;31.00;29.84;102078.44;5090491;27;99167;-74
2023/09/07 10:45:15;;;;;;;7.45;3.50;;;;;;;31.30;29.56;102071.78;5091047;27;97747;-73
2023/09/07 10:47:43;;;;;;;6.65;3.67;;;;;;;31.50;29.26;102067.84;5088106;27;97324;-74
2023/09/07 10:50:12;;;;;;;8.60;3.75;;;;;;;31.35;29.93;102074.03;5087041;27;97776;-73
2023/09/07 10:52:39;;;;;;;6.28;3.45;;;;;;;31.22;29.25;102067.09;5090703;27;98752;-74
2023/09/07 10:55:06;;;;;;;8.20;3.50;;;;;;;31.19;28.66;102064.69;5092421;27;97486;-73
2023/09/07 10:57:33;;;;;;;8.82;3.13;;;;;;;31.52;29.11;102070.41;5081374;27;98500;-74
2023/09/07 10:59:59;;;;;;;6.43;4.20;;;;;;;31.56;27.93;102063.63;5088050;27;99022;-74
2023/09/07 11:02:27;;;;;;;13.43;3.22;;;;;;;31.56;28.49;102069.09;5091498;27;98738;-74
2023/09/07 11:04:53;;;;;;;7.85;3.50;;;;;;;31.95;28.06;102070.41;5084560;27;98229;-73
2023/09/07 11:07:20;;;;;;;5.43;3.55;;;;;;;31.69;28.55;102075.03;5093011;27;97137;-74
2023/09/07 11:09:46;;;;;;;7.22;3.92;;;;;;;31.55;27.84;102061.91;5088959;27;99054;-75
2023/09/07 11:12:16;;;;;;;9.77;3.95;;;;;;;31.30;28.95;102057.28;5086342;27;98812;-73
2023/09/07 11:14:42;;;;;;;7.78;3.78;;;;;;;31.19;29.15;102055.63;5094960;27;97301;-74
2023/09/07 11:17:09;;;;;;;7.28;3.50;;;;;;;31.07;28.72;102049.56;5089469;27;97779;-74
2023/09/07 11:19:37;;;;;;;9.35;3.42;;;;;;;31.15;29.31;102049.63;5086263;27;97910;-74